sensor_id;sensor_type;location;lat;lon;timestamp;P1;durP1;ratioP1;P2;durP2;ratioP2
665;SDS011;315;48.738;9.126;2023-03-17T00:00:14;8.00;;;6.87;;
665;SDS011;315;48.738;9.126;2023-03-17T00:02:42;7.90;;;6.20;;
665;SDS011;315;48.738;9.126;2023-03-17T00:05:23;8.27;;;6.90;;
665;SDS011;315;48.738;9.126;2023-03-17T00:07:51;9.40;;;7.33;;
665;SDS011;315;48.738;9.126;2023-03-17T00:10:19;9.60;;;7.63;;
665;SDS011;315;48.738;9.126;2023-03-17T00:12:50;13.40;;;7.43;;
665;SDS011;315;48.738;9.126;2023-03-17T00:15:19;11.00;;;6.70;;
665;SDS011;315;48.738;9.126;2023-03-17T00:17:45;10.80;;;6.77;;
665;SDS011;315;48.738;9.126;2023-03-17T00:20:14;9.73;;;7.17;;
665;SDS011;315;48.738;9.126;2023-03-17T00:22:49;10.07;;;7.20;;
665;SDS011;315;48.738;9.126;2023-03-17T00:25:19;8.10;;;7.27;;
665;SDS011;315;48.738;9.126;2023-03-17T00:27:49;8.83;;;6.10;;
665;SDS011;315;48.738;9.126;2023-03-17T00:30:15;12.50;;;10.00;;
665;SDS011;315;48.738;9.126;2023-03-17T00:32:41;10.37;;;7.70;;
665;SDS011;315;48.738;9.126;2023-03-17T00:35:42;7.07;;;6.37;;
665;SDS011;315;48.738;9.126;2023-03-17T00:38:02;8.33;;;7.20;;
665;SDS011;315;48.738;9.126;2023-03-17T00:40:28;7.80;;;6.60;;
665;SDS011;315;48.738;9.126;2023-03-17T00:42:55;11.03;;;8.83;;
665;SDS011;315;48.738;9.126;2023-03-17T00:45:22;10.20;;;8.30;;
665;SDS011;315;48.738;9.126;2023-03-17T00:47:50;11.50;;;7.40;;
665;SDS011;315;48.738;9.126;2023-03-17T00:50:19;7.40;;;6.60;;
665;SDS011;315;48.738;9.126;2023-03-17T00:52:51;11.40;;;7.40;;
665;SDS011;315;48.738;9.126;2023-03-17T00:55:18;9.97;;;7.07;;
665;SDS011;315;48.738;9.126;2023-03-17T00:57:45;8.10;;;7.30;;
665;SDS011;315;48.738;9.126;2023-03-17T01:02:46;8.03;;;7.10;;
665;SDS011;315;48.738;9.126;2023-03-17T01:05:12;10.30;;;7.10;;
665;SDS011;315;48.738;9.126;2023-03-17T01:07:38;9.60;;;6.50;;
665;SDS011;315;48.738;9.126;2023-03-17T01:10:12;8.00;;;7.10;;
665;SDS011;315;48.738;9.126;2023-03-17T01:12:43;7.40;;;6.53;;
665;SDS011;315;48.738;9.126;2023-03-17T01:15:09;8.17;;;7.33;;
665;SDS011;315;48.738;9.126;2023-03-17T01:17:39;9.13;;;7.00;;
665;SDS011;315;48.738;9.126;2023-03-17T01:20:06;11.73;;;7.43;;
665;SDS011;315;48.738;9.126;2023-03-17T01:22:35;7.80;;;7.00;;
665;SDS011;315;48.738;9.126;2023-03-17T01:25:00;7.90;;;7.10;;
665;SDS011;315;48.738;9.126;2023-03-17T01:27:26;8.53;;;7.47;;
665;SDS011;315;48.738;9.126;2023-03-17T01:29:53;7.90;;;6.07;;
665;SDS011;315;48.738;9.126;2023-03-17T01:32:18;9.70;;;7.20;;
665;SDS011;315;48.738;9.126;2023-03-17T01:34:44;7.37;;;6.43;;
665;SDS011;315;48.738;9.126;2023-03-17T01:37:10;7.97;;;7.17;;
665;SDS011;315;48.738;9.126;2023-03-17T01:39:36;7.77;;;6.77;;
665;SDS011;315;48.738;9.126;2023-03-17T01:42:01;9.10;;;6.50;;
665;SDS011;315;48.738;9.126;2023-03-17T01:44:28;7.50;;;6.27;;
665;SDS011;315;48.738;9.126;2023-03-17T01:46:53;9.27;;;7.70;;
665;SDS011;315;48.738;9.126;2023-03-17T01:49:30;6.70;;;6.10;;
665;SDS011;315;48.738;9.126;2023-03-17T01:52:03;10.37;;;7.60;;
665;SDS011;315;48.738;9.126;2023-03-17T02:00:13;7.23;;;6.53;;
665;SDS011;315;48.738;9.126;2023-03-17T02:02:43;9.50;;;6.20;;
665;SDS011;315;48.738;9.126;2023-03-17T02:05:11;7.53;;;6.73;;
665;SDS011;315;48.738;9.126;2023-03-17T02:07:39;6.57;;;5.70;;
665;SDS011;315;48.738;9.126;2023-03-17T02:10:06;6.50;;;4.90;;
665;SDS011;315;48.738;9.126;2023-03-17T02:12:33;5.80;;;5.03;;
665;SDS011;315;48.738;9.126;2023-03-17T02:14:59;6.40;;;5.20;;
665;SDS011;315;48.738;9.126;2023-03-17T02:17:26;6.70;;;4.67;;
665;SDS011;315;48.738;9.126;2023-03-17T02:19:52;8.50;;;5.63;;
665;SDS011;315;48.738;9.126;2023-03-17T02:22:18;5.90;;;5.30;;
665;SDS011;315;48.738;9.126;2023-03-17T02:24:48;5.57;;;4.77;;
665;SDS011;315;48.738;9.126;2023-03-17T02:27:17;6.70;;;4.90;;
665;SDS011;315;48.738;9.126;2023-03-17T02:29:47;8.13;;;5.03;;
665;SDS011;315;48.738;9.126;2023-03-17T02:32:15;7.10;;;5.70;;
665;SDS011;315;48.738;9.126;2023-03-17T02:34:42;7.30;;;4.70;;
665;SDS011;315;48.738;9.126;2023-03-17T02:37:08;6.03;;;5.00;;
665;SDS011;315;48.738;9.126;2023-03-17T02:39:34;7.47;;;5.77;;
665;SDS011;315;48.738;9.126;2023-03-17T02:42:00;6.03;;;5.43;;
665;SDS011;315;48.738;9.126;2023-03-17T02:44:26;12.03;;;5.20;;
665;SDS011;315;48.738;9.126;2023-03-17T02:46:51;5.83;;;5.33;;
665;SDS011;315;48.738;9.126;2023-03-17T02:49:17;6.43;;;5.70;;
665;SDS011;315;48.738;9.126;2023-03-17T02:51:43;6.13;;;5.47;;
665;SDS011;315;48.738;9.126;2023-03-17T02:54:09;6.70;;;5.60;;
665;SDS011;315;48.738;9.126;2023-03-17T02:56:35;6.50;;;5.27;;
665;SDS011;315;48.738;9.126;2023-03-17T02:59:01;5.60;;;5.00;;
665;SDS011;315;48.738;9.126;2023-03-17T03:01:27;6.00;;;5.40;;
665;SDS011;315;48.738;9.126;2023-03-17T03:03:54;7.17;;;6.43;;
665;SDS011;315;48.738;9.126;2023-03-17T03:06:21;6.20;;;5.20;;
665;SDS011;315;48.738;9.126;2023-03-17T03:08:47;5.33;;;4.83;;
665;SDS011;315;48.738;9.126;2023-03-17T03:11:13;5.37;;;4.87;;
665;SDS011;315;48.738;9.126;2023-03-17T03:13:39;6.93;;;5.00;;
665;SDS011;315;48.738;9.126;2023-03-17T03:16:05;6.10;;;5.20;;
665;SDS011;315;48.738;9.126;2023-03-17T03:18:31;5.17;;;4.67;;
665;SDS011;315;48.738;9.126;2023-03-17T03:20:56;5.57;;;4.97;;
665;SDS011;315;48.738;9.126;2023-03-17T03:23:22;6.70;;;5.90;;
665;SDS011;315;48.738;9.126;2023-03-17T03:25:48;6.50;;;5.17;;
665;SDS011;315;48.738;9.126;2023-03-17T03:28:13;6.00;;;5.50;;
665;SDS011;315;48.738;9.126;2023-03-17T03:30:39;4.77;;;4.17;;
665;SDS011;315;48.738;9.126;2023-03-17T03:33:05;5.33;;;4.80;;
665;SDS011;315;48.738;9.126;2023-03-17T03:35:31;4.67;;;4.27;;
665;SDS011;315;48.738;9.126;2023-03-17T03:37:58;6.77;;;5.07;;
665;SDS011;315;48.738;9.126;2023-03-17T03:40:23;5.67;;;5.17;;
665;SDS011;315;48.738;9.126;2023-03-17T03:42:49;4.10;;;3.70;;
665;SDS011;315;48.738;9.126;2023-03-17T03:45:15;4.67;;;4.07;;
665;SDS011;315;48.738;9.126;2023-03-17T03:47:41;7.17;;;4.60;;
665;SDS011;315;48.738;9.126;2023-03-17T03:50:07;5.17;;;4.23;;
665;SDS011;315;48.738;9.126;2023-03-17T03:52:33;5.23;;;4.70;;
665;SDS011;315;48.738;9.126;2023-03-17T03:54:59;5.87;;;5.13;;
665;SDS011;315;48.738;9.126;2023-03-17T03:57:24;5.17;;;4.43;;
665;SDS011;315;48.738;9.126;2023-03-17T03:59:50;5.37;;;4.87;;
665;SDS011;315;48.738;9.126;2023-03-17T04:02:16;4.23;;;3.53;;
665;SDS011;315;48.738;9.126;2023-03-17T04:04:42;5.70;;;4.43;;
665;SDS011;315;48.738;9.126;2023-03-17T04:07:08;5.00;;;4.50;;
665;SDS011;315;48.738;9.126;2023-03-17T04:09:34;4.60;;;4.20;;
665;SDS011;315;48.738;9.126;2023-03-17T04:12:00;4.97;;;4.40;;
665;SDS011;315;48.738;9.126;2023-03-17T04:14:26;4.10;;;3.80;;
665;SDS011;315;48.738;9.126;2023-03-17T04:16:52;6.60;;;4.03;;
665;SDS011;315;48.738;9.126;2023-03-17T04:19:18;3.90;;;3.57;;
665;SDS011;315;48.738;9.126;2023-03-17T04:21:45;4.87;;;4.40;;
665;SDS011;315;48.738;9.126;2023-03-17T04:24:11;6.07;;;4.67;;
665;SDS011;315;48.738;9.126;2023-03-17T04:26:37;5.20;;;4.70;;
665;SDS011;315;48.738;9.126;2023-03-17T04:29:02;4.50;;;4.10;;
665;SDS011;315;48.738;9.126;2023-03-17T04:31:28;4.33;;;3.90;;
665;SDS011;315;48.738;9.126;2023-03-17T04:33:54;6.27;;;3.93;;
665;SDS011;315;48.738;9.126;2023-03-17T04:36:20;4.63;;;4.20;;
665;SDS011;315;48.738;9.126;2023-03-17T04:38:47;6.30;;;3.93;;
665;SDS011;315;48.738;9.126;2023-03-17T04:41:13;5.67;;;3.97;;
665;SDS011;315;48.738;9.126;2023-03-17T04:43:39;8.73;;;3.93;;
665;SDS011;315;48.738;9.126;2023-03-17T04:46:05;4.73;;;4.37;;
665;SDS011;315;48.738;9.126;2023-03-17T04:48:31;6.77;;;4.40;;
665;SDS011;315;48.738;9.126;2023-03-17T04:50:57;6.50;;;4.10;;
665;SDS011;315;48.738;9.126;2023-03-17T04:53:22;4.20;;;3.70;;
665;SDS011;315;48.738;9.126;2023-03-17T04:55:48;3.93;;;3.50;;
665;SDS011;315;48.738;9.126;2023-03-17T04:58:14;4.63;;;4.23;;
665;SDS011;315;48.738;9.126;2023-03-17T05:00:39;4.40;;;4.00;;
665;SDS011;315;48.738;9.126;2023-03-17T05:03:05;7.30;;;4.70;;
665;SDS011;315;48.738;9.126;2023-03-17T05:05:31;4.37;;;3.33;;
665;SDS011;315;48.738;9.126;2023-03-17T05:07:57;6.60;;;4.30;;
665;SDS011;315;48.738;9.126;2023-03-17T05:10:22;4.53;;;3.90;;
665;SDS011;315;48.738;9.126;2023-03-17T05:12:48;4.20;;;3.50;;
665;SDS011;315;48.738;9.126;2023-03-17T05:15:13;5.77;;;4.03;;
665;SDS011;315;48.738;9.126;2023-03-17T05:17:39;4.57;;;3.90;;
665;SDS011;315;48.738;9.126;2023-03-17T05:20:05;7.13;;;3.87;;
665;SDS011;315;48.738;9.126;2023-03-17T05:22:32;4.50;;;3.70;;
665;SDS011;315;48.738;9.126;2023-03-17T05:24:58;6.57;;;4.43;;
665;SDS011;315;48.738;9.126;2023-03-17T05:27:23;4.53;;;4.10;;
665;SDS011;315;48.738;9.126;2023-03-17T05:29:49;5.10;;;3.60;;
665;SDS011;315;48.738;9.126;2023-03-17T05:32:15;11.57;;;8.33;;
665;SDS011;315;48.738;9.126;2023-03-17T05:34:40;8.20;;;6.20;;
665;SDS011;315;48.738;9.126;2023-03-17T05:37:06;8.20;;;4.80;;
665;SDS011;315;48.738;9.126;2023-03-17T05:39:31;5.33;;;4.10;;
665;SDS011;315;48.738;9.126;2023-03-17T05:41:57;5.70;;;4.00;;
665;SDS011;315;48.738;9.126;2023-03-17T05:44:23;5.30;;;3.57;;
665;SDS011;315;48.738;9.126;2023-03-17T05:46:48;8.40;;;3.67;;
665;SDS011;315;48.738;9.126;2023-03-17T05:49:14;8.10;;;4.07;;
665;SDS011;315;48.738;9.126;2023-03-17T05:51:39;4.53;;;4.00;;
665;SDS011;315;48.738;9.126;2023-03-17T05:54:06;4.40;;;3.90;;
665;SDS011;315;48.738;9.126;2023-03-17T05:56:32;5.87;;;4.47;;
665;SDS011;315;48.738;9.126;2023-03-17T05:59:01;5.17;;;4.30;;
665;SDS011;315;48.738;9.126;2023-03-17T06:01:27;6.93;;;6.13;;
665;SDS011;315;48.738;9.126;2023-03-17T06:03:53;8.43;;;5.40;;
665;SDS011;315;48.738;9.126;2023-03-17T06:06:18;5.67;;;5.03;;
665;SDS011;315;48.738;9.126;2023-03-17T06:08:44;9.33;;;5.10;;
665;SDS011;315;48.738;9.126;2023-03-17T06:11:09;8.10;;;4.80;;
665;SDS011;315;48.738;9.126;2023-03-17T06:13:35;5.60;;;4.30;;
665;SDS011;315;48.738;9.126;2023-03-17T06:16:01;7.33;;;3.80;;
665;SDS011;315;48.738;9.126;2023-03-17T06:18:27;6.20;;;4.30;;
665;SDS011;315;48.738;9.126;2023-03-17T06:20:53;5.60;;;4.30;;
665;SDS011;315;48.738;9.126;2023-03-17T06:23:19;7.43;;;5.20;;
665;SDS011;315;48.738;9.126;2023-03-17T06:25:45;10.33;;;4.77;;
665;SDS011;315;48.738;9.126;2023-03-17T06:28:11;5.37;;;3.80;;
665;SDS011;315;48.738;9.126;2023-03-17T06:30:37;8.73;;;4.17;;
665;SDS011;315;48.738;9.126;2023-03-17T06:33:03;10.50;;;4.67;;
665;SDS011;315;48.738;9.126;2023-03-17T06:35:29;6.87;;;4.27;;
665;SDS011;315;48.738;9.126;2023-03-17T06:37:56;6.73;;;3.10;;
665;SDS011;315;48.738;9.126;2023-03-17T06:40:22;4.73;;;4.00;;
665;SDS011;315;48.738;9.126;2023-03-17T06:42:47;6.47;;;5.73;;
665;SDS011;315;48.738;9.126;2023-03-17T06:45:13;6.60;;;4.50;;
665;SDS011;315;48.738;9.126;2023-03-17T06:47:39;6.93;;;5.50;;
665;SDS011;315;48.738;9.126;2023-03-17T06:50:05;7.83;;;3.93;;
665;SDS011;315;48.738;9.126;2023-03-17T06:52:33;3.47;;;2.57;;
665;SDS011;315;48.738;9.126;2023-03-17T06:54:59;4.73;;;3.63;;
665;SDS011;315;48.738;9.126;2023-03-17T06:57:25;3.77;;;3.47;;
665;SDS011;315;48.738;9.126;2023-03-17T06:59:51;4.83;;;3.57;;
665;SDS011;315;48.738;9.126;2023-03-17T07:02:17;7.50;;;4.77;;
665;SDS011;315;48.738;9.126;2023-03-17T07:04:42;4.70;;;3.33;;
665;SDS011;315;48.738;9.126;2023-03-17T07:07:08;6.83;;;4.20;;
665;SDS011;315;48.738;9.126;2023-03-17T07:09:33;6.47;;;4.07;;
665;SDS011;315;48.738;9.126;2023-03-17T07:12:00;8.20;;;4.67;;
665;SDS011;315;48.738;9.126;2023-03-17T07:14:30;8.77;;;4.30;;
665;SDS011;315;48.738;9.126;2023-03-17T07:16:57;8.17;;;4.67;;
665;SDS011;315;48.738;9.126;2023-03-17T07:19:23;4.03;;;3.67;;
665;SDS011;315;48.738;9.126;2023-03-17T07:21:51;7.50;;;3.73;;
665;SDS011;315;48.738;9.126;2023-03-17T07:24:17;6.10;;;3.70;;
665;SDS011;315;48.738;9.126;2023-03-17T07:26:42;5.70;;;4.70;;
665;SDS011;315;48.738;9.126;2023-03-17T07:29:08;3.03;;;2.80;;
665;SDS011;315;48.738;9.126;2023-03-17T07:31:35;6.93;;;3.13;;
665;SDS011;315;48.738;9.126;2023-03-17T07:34:02;3.57;;;3.10;;
665;SDS011;315;48.738;9.126;2023-03-17T07:36:30;2.97;;;2.73;;
665;SDS011;315;48.738;9.126;2023-03-17T07:38:56;4.10;;;3.07;;
665;SDS011;315;48.738;9.126;2023-03-17T07:41:22;5.53;;;4.07;;
665;SDS011;315;48.738;9.126;2023-03-17T07:43:47;5.47;;;2.97;;
665;SDS011;315;48.738;9.126;2023-03-17T07:46:13;4.70;;;3.97;;
665;SDS011;315;48.738;9.126;2023-03-17T07:48:39;6.60;;;3.73;;
665;SDS011;315;48.738;9.126;2023-03-17T07:51:11;4.53;;;3.30;;
665;SDS011;315;48.738;9.126;2023-03-17T07:53:38;6.83;;;3.77;;
665;SDS011;315;48.738;9.126;2023-03-17T07:56:04;5.17;;;2.93;;
665;SDS011;315;48.738;9.126;2023-03-17T07:58:30;3.80;;;3.40;;
665;SDS011;315;48.738;9.126;2023-03-17T08:00:56;3.60;;;2.57;;
665;SDS011;315;48.738;9.126;2023-03-17T08:03:22;4.70;;;4.30;;
665;SDS011;315;48.738;9.126;2023-03-17T08:05:51;5.47;;;4.00;;
665;SDS011;315;48.738;9.126;2023-03-17T08:08:20;5.73;;;3.43;;
665;SDS011;315;48.738;9.126;2023-03-17T08:10:46;5.40;;;3.73;;
665;SDS011;315;48.738;9.126;2023-03-17T08:13:12;4.77;;;3.47;;
665;SDS011;315;48.738;9.126;2023-03-17T08:15:38;6.30;;;3.17;;
665;SDS011;315;48.738;9.126;2023-03-17T08:18:04;4.00;;;3.60;;
665;SDS011;315;48.738;9.126;2023-03-17T08:20:31;4.70;;;3.10;;
665;SDS011;315;48.738;9.126;2023-03-17T08:22:57;4.47;;;4.00;;
665;SDS011;315;48.738;9.126;2023-03-17T08:25:23;4.10;;;2.90;;
665;SDS011;315;48.738;9.126;2023-03-17T08:27:48;3.07;;;2.80;;
665;SDS011;315;48.738;9.126;2023-03-17T08:30:15;9.80;;;2.80;;
665;SDS011;315;48.738;9.126;2023-03-17T08:32:41;3.10;;;2.70;;
665;SDS011;315;48.738;9.126;2023-03-17T08:35:10;3.57;;;3.07;;
665;SDS011;315;48.738;9.126;2023-03-17T08:37:37;4.00;;;3.60;;
665;SDS011;315;48.738;9.126;2023-03-17T08:40:03;4.17;;;3.57;;
665;SDS011;315;48.738;9.126;2023-03-17T08:42:29;4.00;;;2.97;;
665;SDS011;315;48.738;9.126;2023-03-17T08:44:55;2.77;;;2.57;;
665;SDS011;315;48.738;9.126;2023-03-17T08:47:21;3.20;;;2.83;;
665;SDS011;315;48.738;9.126;2023-03-17T08:49:47;2.57;;;2.37;;
665;SDS011;315;48.738;9.126;2023-03-17T08:52:14;5.87;;;4.27;;
665;SDS011;315;48.738;9.126;2023-03-17T08:54:40;2.60;;;2.40;;
665;SDS011;315;48.738;9.126;2023-03-17T08:57:07;4.07;;;2.40;;
665;SDS011;315;48.738;9.126;2023-03-17T08:59:32;2.83;;;2.37;;
665;SDS011;315;48.738;9.126;2023-03-17T09:01:58;2.70;;;2.17;;
665;SDS011;315;48.738;9.126;2023-03-17T09:04:24;3.93;;;2.13;;
665;SDS011;315;48.738;9.126;2023-03-17T09:06:50;3.27;;;2.43;;
665;SDS011;315;48.738;9.126;2023-03-17T09:09:17;3.50;;;2.27;;
665;SDS011;315;48.738;9.126;2023-03-17T09:11:42;2.80;;;2.33;;
665;SDS011;315;48.738;9.126;2023-03-17T09:14:08;1.83;;;1.70;;
665;SDS011;315;48.738;9.126;2023-03-17T09:16:33;5.90;;;2.33;;
665;SDS011;315;48.738;9.126;2023-03-17T09:18:59;2.57;;;2.37;;
665;SDS011;315;48.738;9.126;2023-03-17T09:21:25;4.13;;;3.10;;
665;SDS011;315;48.738;9.126;2023-03-17T09:23:51;2.87;;;2.67;;
665;SDS011;315;48.738;9.126;2023-03-17T09:26:17;3.10;;;2.67;;
665;SDS011;315;48.738;9.126;2023-03-17T09:28:44;3.90;;;3.47;;
665;SDS011;315;48.738;9.126;2023-03-17T09:31:09;4.03;;;2.60;;
665;SDS011;315;48.738;9.126;2023-03-17T09:33:37;2.30;;;2.07;;
665;SDS011;315;48.738;9.126;2023-03-17T09:36:03;2.63;;;2.43;;
665;SDS011;315;48.738;9.126;2023-03-17T09:38:29;2.63;;;2.43;;
665;SDS011;315;48.738;9.126;2023-03-17T09:40:57;2.30;;;2.10;;
665;SDS011;315;48.738;9.126;2023-03-17T09:43:33;1.97;;;1.87;;
665;SDS011;315;48.738;9.126;2023-03-17T09:49:02;2.60;;;2.40;;
665;SDS011;315;48.738;9.126;2023-03-17T09:51:32;2.97;;;2.27;;
665;SDS011;315;48.738;9.126;2023-03-17T09:54:01;3.80;;;3.13;;
665;SDS011;315;48.738;9.126;2023-03-17T09:56:29;7.20;;;2.63;;
665;SDS011;315;48.738;9.126;2023-03-17T09:58:58;3.00;;;2.73;;
665;SDS011;315;48.738;9.126;2023-03-17T10:01:28;3.23;;;2.90;;
665;SDS011;315;48.738;9.126;2023-03-17T10:03:54;4.73;;;2.30;;
665;SDS011;315;48.738;9.126;2023-03-17T10:06:31;3.63;;;3.33;;
665;SDS011;315;48.738;9.126;2023-03-17T10:09:02;4.77;;;2.63;;
665;SDS011;315;48.738;9.126;2023-03-17T10:11:53;2.93;;;2.73;;
665;SDS011;315;48.738;9.126;2023-03-17T10:14:32;2.80;;;2.60;;
665;SDS011;315;48.738;9.126;2023-03-17T10:17:24;4.37;;;2.50;;
665;SDS011;315;48.738;9.126;2023-03-17T10:19:59;6.40;;;2.70;;
665;SDS011;315;48.738;9.126;2023-03-17T10:25:12;4.10;;;2.80;;
665;SDS011;315;48.738;9.126;2023-03-17T10:27:38;2.90;;;1.90;;
665;SDS011;315;48.738;9.126;2023-03-17T10:30:13;3.63;;;2.30;;
665;SDS011;315;48.738;9.126;2023-03-17T10:32:43;2.33;;;2.10;;
665;SDS011;315;48.738;9.126;2023-03-17T10:35:10;2.00;;;1.80;;
665;SDS011;315;48.738;9.126;2023-03-17T10:37:37;2.30;;;2.10;;
665;SDS011;315;48.738;9.126;2023-03-17T10:40:04;2.37;;;1.97;;
665;SDS011;315;48.738;9.126;2023-03-17T10:42:34;2.40;;;2.17;;
665;SDS011;315;48.738;9.126;2023-03-17T10:45:27;2.07;;;1.87;;
665;SDS011;315;48.738;9.126;2023-03-17T10:47:56;2.60;;;2.20;;
665;SDS011;315;48.738;9.126;2023-03-17T10:50:27;5.10;;;4.03;;
665;SDS011;315;48.738;9.126;2023-03-17T10:52:59;2.60;;;1.70;;
665;SDS011;315;48.738;9.126;2023-03-17T10:55:32;3.20;;;2.90;;
665;SDS011;315;48.738;9.126;2023-03-17T10:58:05;2.33;;;1.80;;
665;SDS011;315;48.738;9.126;2023-03-17T11:00:39;1.80;;;1.70;;
665;SDS011;315;48.738;9.126;2023-03-17T11:03:17;1.90;;;1.70;;
665;SDS011;315;48.738;9.126;2023-03-17T11:05:54;1.80;;;1.60;;
665;SDS011;315;48.738;9.126;2023-03-17T11:08:24;4.90;;;4.03;;
665;SDS011;315;48.738;9.126;2023-03-17T11:10:59;2.57;;;2.20;;
665;SDS011;315;48.738;9.126;2023-03-17T11:13:29;1.80;;;1.70;;
665;SDS011;315;48.738;9.126;2023-03-17T11:15:57;2.33;;;2.10;;
665;SDS011;315;48.738;9.126;2023-03-17T11:18:29;1.83;;;1.73;;
665;SDS011;315;48.738;9.126;2023-03-17T11:21:08;1.60;;;1.50;;
665;SDS011;315;48.738;9.126;2023-03-17T11:23:43;3.50;;;2.60;;
665;SDS011;315;48.738;9.126;2023-03-17T11:35:04;3.10;;;2.50;;
665;SDS011;315;48.738;9.126;2023-03-17T11:40:28;3.40;;;2.90;;
665;SDS011;315;48.738;9.126;2023-03-17T11:45:53;2.43;;;2.20;;
665;SDS011;315;48.738;9.126;2023-03-17T11:48:35;2.47;;;2.13;;
665;SDS011;315;48.738;9.126;2023-03-17T11:54:24;1.97;;;1.80;;
665;SDS011;315;48.738;9.126;2023-03-17T11:56:57;2.33;;;2.13;;
665;SDS011;315;48.738;9.126;2023-03-17T11:59:36;2.13;;;1.77;;
665;SDS011;315;48.738;9.126;2023-03-17T12:02:27;1.80;;;1.70;;
665;SDS011;315;48.738;9.126;2023-03-17T12:05:12;2.23;;;2.00;;
665;SDS011;315;48.738;9.126;2023-03-17T12:07:47;2.37;;;1.67;;
665;SDS011;315;48.738;9.126;2023-03-17T12:13:04;2.40;;;1.83;;
665;SDS011;315;48.738;9.126;2023-03-17T12:15:33;2.40;;;1.80;;
665;SDS011;315;48.738;9.126;2023-03-17T12:23:27;1.87;;;1.67;;
665;SDS011;315;48.738;9.126;2023-03-17T12:26:11;2.47;;;1.77;;
665;SDS011;315;48.738;9.126;2023-03-17T12:28:45;2.60;;;2.40;;
665;SDS011;315;48.738;9.126;2023-03-17T12:31:31;1.97;;;1.80;;
665;SDS011;315;48.738;9.126;2023-03-17T12:36:39;2.00;;;1.80;;
665;SDS011;315;48.738;9.126;2023-03-17T12:39:08;1.97;;;1.87;;
665;SDS011;315;48.738;9.126;2023-03-17T12:47:06;2.53;;;2.33;;
665;SDS011;315;48.738;9.126;2023-03-17T12:55:39;2.63;;;2.10;;
665;SDS011;315;48.738;9.126;2023-03-17T13:01:03;2.47;;;2.27;;
665;SDS011;315;48.738;9.126;2023-03-17T13:06:29;3.03;;;2.43;;
665;SDS011;315;48.738;9.126;2023-03-17T13:11:52;3.13;;;2.83;;
665;SDS011;315;48.738;9.126;2023-03-17T13:22:35;2.83;;;2.10;;
665;SDS011;315;48.738;9.126;2023-03-17T13:27:41;3.30;;;2.20;;
665;SDS011;315;48.738;9.126;2023-03-17T13:33:01;2.20;;;2.00;;
665;SDS011;315;48.738;9.126;2023-03-17T13:38:17;4.10;;;2.30;;
665;SDS011;315;48.738;9.126;2023-03-17T13:43:55;4.40;;;2.30;;
665;SDS011;315;48.738;9.126;2023-03-17T13:49:14;6.00;;;2.73;;
665;SDS011;315;48.738;9.126;2023-03-17T13:51:53;3.23;;;2.00;;
665;SDS011;315;48.738;9.126;2023-03-17T13:56:54;4.47;;;2.03;;
665;SDS011;315;48.738;9.126;2023-03-17T13:59:52;2.33;;;2.13;;
665;SDS011;315;48.738;9.126;2023-03-17T14:02:19;3.57;;;2.20;;
665;SDS011;315;48.738;9.126;2023-03-17T14:04:52;1.90;;;1.80;;
665;SDS011;315;48.738;9.126;2023-03-17T14:07:21;2.70;;;2.20;;
665;SDS011;315;48.738;9.126;2023-03-17T14:09:51;2.27;;;1.97;;
665;SDS011;315;48.738;9.126;2023-03-17T14:14:59;2.50;;;2.10;;
665;SDS011;315;48.738;9.126;2023-03-17T14:17:42;10.30;;;1.90;;
665;SDS011;315;48.738;9.126;2023-03-17T14:22:43;2.20;;;1.70;;
665;SDS011;315;48.738;9.126;2023-03-17T14:25:20;1.97;;;1.77;;
665;SDS011;315;48.738;9.126;2023-03-17T14:27:50;3.37;;;3.07;;
665;SDS011;315;48.738;9.126;2023-03-17T14:30:19;3.23;;;2.00;;
665;SDS011;315;48.738;9.126;2023-03-17T14:32:49;2.33;;;1.93;;
665;SDS011;315;48.738;9.126;2023-03-17T14:35:20;2.17;;;1.77;;
665;SDS011;315;48.738;9.126;2023-03-17T14:37:45;2.10;;;1.90;;
665;SDS011;315;48.738;9.126;2023-03-17T14:40:18;3.70;;;2.50;;
665;SDS011;315;48.738;9.126;2023-03-17T14:42:46;3.37;;;2.10;;
665;SDS011;315;48.738;9.126;2023-03-17T14:48:21;1.63;;;1.53;;
665;SDS011;315;48.738;9.126;2023-03-17T14:50:51;1.93;;;1.83;;
665;SDS011;315;48.738;9.126;2023-03-17T14:53:20;2.40;;;2.00;;
665;SDS011;315;48.738;9.126;2023-03-17T14:55:46;2.73;;;1.63;;
665;SDS011;315;48.738;9.126;2023-03-17T14:58:23;2.67;;;1.80;;
665;SDS011;315;48.738;9.126;2023-03-17T15:00:53;3.40;;;1.73;;
665;SDS011;315;48.738;9.126;2023-03-17T15:03:22;2.40;;;1.50;;
665;SDS011;315;48.738;9.126;2023-03-17T15:06:01;2.03;;;1.83;;
665;SDS011;315;48.738;9.126;2023-03-17T15:08:51;2.13;;;2.03;;
665;SDS011;315;48.738;9.126;2023-03-17T15:11:23;2.90;;;1.97;;
665;SDS011;315;48.738;9.126;2023-03-17T15:13:54;6.73;;;2.30;;
665;SDS011;315;48.738;9.126;2023-03-17T15:16:29;2.77;;;2.40;;
665;SDS011;315;48.738;9.126;2023-03-17T15:19:02;2.77;;;2.03;;
665;SDS011;315;48.738;9.126;2023-03-17T15:21:47;3.07;;;2.60;;
665;SDS011;315;48.738;9.126;2023-03-17T15:27:14;5.60;;;3.57;;
665;SDS011;315;48.738;9.126;2023-03-17T15:29:42;4.40;;;3.87;;
665;SDS011;315;48.738;9.126;2023-03-17T15:32:09;4.20;;;3.10;;
665;SDS011;315;48.738;9.126;2023-03-17T15:34:36;2.70;;;2.00;;
665;SDS011;315;48.738;9.126;2023-03-17T15:37:02;2.37;;;2.17;;
665;SDS011;315;48.738;9.126;2023-03-17T15:39:28;3.57;;;2.30;;
665;SDS011;315;48.738;9.126;2023-03-17T15:41:53;2.63;;;2.43;;
665;SDS011;315;48.738;9.126;2023-03-17T15:44:19;2.27;;;2.00;;
665;SDS011;315;48.738;9.126;2023-03-17T15:46:44;4.50;;;2.30;;
665;SDS011;315;48.738;9.126;2023-03-17T15:49:10;7.87;;;2.93;;
665;SDS011;315;48.738;9.126;2023-03-17T15:51:36;3.63;;;2.00;;
665;SDS011;315;48.738;9.126;2023-03-17T15:54:02;3.40;;;2.13;;
665;SDS011;315;48.738;9.126;2023-03-17T15:56:28;6.60;;;2.00;;
665;SDS011;315;48.738;9.126;2023-03-17T15:58:54;3.77;;;2.67;;
665;SDS011;315;48.738;9.126;2023-03-17T16:01:20;4.17;;;2.10;;
665;SDS011;315;48.738;9.126;2023-03-17T16:03:46;2.63;;;2.40;;
665;SDS011;315;48.738;9.126;2023-03-17T16:06:19;2.80;;;2.03;;
665;SDS011;315;48.738;9.126;2023-03-17T16:08:46;8.67;;;2.20;;
665;SDS011;315;48.738;9.126;2023-03-17T16:11:16;2.63;;;1.73;;
665;SDS011;315;48.738;9.126;2023-03-17T16:13:44;5.17;;;2.40;;
665;SDS011;315;48.738;9.126;2023-03-17T16:16:15;2.70;;;2.23;;
665;SDS011;315;48.738;9.126;2023-03-17T16:18:45;3.10;;;2.37;;
665;SDS011;315;48.738;9.126;2023-03-17T16:21:11;7.63;;;2.80;;
665;SDS011;315;48.738;9.126;2023-03-17T16:23:37;6.07;;;2.47;;
665;SDS011;315;48.738;9.126;2023-03-17T16:26:03;6.13;;;2.40;;
665;SDS011;315;48.738;9.126;2023-03-17T16:28:29;3.93;;;2.30;;
665;SDS011;315;48.738;9.126;2023-03-17T16:30:57;3.90;;;2.33;;
665;SDS011;315;48.738;9.126;2023-03-17T16:35:56;11.27;;;2.50;;
665;SDS011;315;48.738;9.126;2023-03-17T16:38:23;3.13;;;2.80;;
665;SDS011;315;48.738;9.126;2023-03-17T16:40:51;3.07;;;2.83;;
665;SDS011;315;48.738;9.126;2023-03-17T16:43:28;4.40;;;3.20;;
665;SDS011;315;48.738;9.126;2023-03-17T16:45:59;2.87;;;2.63;;
665;SDS011;315;48.738;9.126;2023-03-17T16:48:26;6.67;;;2.90;;
665;SDS011;315;48.738;9.126;2023-03-17T16:50:53;9.13;;;4.17;;
665;SDS011;315;48.738;9.126;2023-03-17T16:53:20;9.03;;;5.00;;
665;SDS011;315;48.738;9.126;2023-03-17T16:55:45;8.10;;;3.77;;
665;SDS011;315;48.738;9.126;2023-03-17T17:00:43;7.23;;;3.30;;
665;SDS011;315;48.738;9.126;2023-03-17T17:03:10;3.30;;;3.00;;
665;SDS011;315;48.738;9.126;2023-03-17T17:05:36;6.80;;;3.10;;
665;SDS011;315;48.738;9.126;2023-03-17T17:08:02;5.60;;;3.43;;
665;SDS011;315;48.738;9.126;2023-03-17T17:10:29;8.60;;;3.73;;
665;SDS011;315;48.738;9.126;2023-03-17T17:12:56;4.80;;;3.70;;
665;SDS011;315;48.738;9.126;2023-03-17T17:15:22;4.70;;;3.43;;
665;SDS011;315;48.738;9.126;2023-03-17T17:17:48;6.00;;;3.90;;
665;SDS011;315;48.738;9.126;2023-03-17T17:20:19;7.40;;;3.90;;
665;SDS011;315;48.738;9.126;2023-03-17T17:22:47;3.80;;;3.33;;
665;SDS011;315;48.738;9.126;2023-03-17T17:25:13;7.80;;;4.00;;
665;SDS011;315;48.738;9.126;2023-03-17T17:27:40;19.97;;;12.90;;
665;SDS011;315;48.738;9.126;2023-03-17T17:30:07;8.50;;;4.50;;
665;SDS011;315;48.738;9.126;2023-03-17T17:32:34;8.00;;;4.43;;
665;SDS011;315;48.738;9.126;2023-03-17T17:35:00;5.70;;;4.50;;